sensor_id;sensor_type;location;lat;lon;timestamp;P1;durP1;ratioP1;P2;durP2;ratioP2
24305;SDS011;12423;48.768;8.850;2023-09-07T00:01:52;9.45;;;4.90;;
24305;SDS011;12423;48.768;8.850;2023-09-07T00:04:19;7.60;;;4.22;;
24305;SDS011;12423;48.768;8.850;2023-09-07T00:06:49;5.35;;;4.50;;
24305;SDS011;12423;48.768;8.850;2023-09-07T00:09:17;5.68;;;4.38;;
24305;SDS011;12423;48.768;8.850;2023-09-07T00:11:48;7.75;;;4.30;;
24305;SDS011;12423;48.768;8.850;2023-09-07T00:14:17;6.32;;;4.28;;
24305;SDS011;12423;48.768;8.850;2023-09-07T00:16:45;5.57;;;4.53;;
24305;SDS011;12423;48.768;8.850;2023-09-07T00:19:12;7.40;;;4.30;;
24305;SDS011;12423;48.768;8.850;2023-09-07T00:21:40;9.80;;;4.63;;
24305;SDS011;12423;48.768;8.850;2023-09-07T00:24:08;5.97;;;4.32;;
24305;SDS011;12423;48.768;8.850;2023-09-07T00:26:36;5.70;;;4.35;;
24305;SDS011;12423;48.768;8.850;2023-09-07T00:29:04;8.60;;;4.25;;
24305;SDS011;12423;48.768;8.850;2023-09-07T00:31:34;7.63;;;4.57;;
24305;SDS011;12423;48.768;8.850;2023-09-07T00:36:29;7.18;;;4.57;;
24305;SDS011;12423;48.768;8.850;2023-09-07T00:38:57;9.20;;;4.72;;
24305;SDS011;12423;48.768;8.850;2023-09-07T00:41:24;8.30;;;4.65;;
24305;SDS011;12423;48.768;8.850;2023-09-07T00:43:52;7.35;;;4.30;;
24305;SDS011;12423;48.768;8.850;2023-09-07T00:46:20;6.32;;;4.43;;
24305;SDS011;12423;48.768;8.850;2023-09-07T00:48:49;5.38;;;4.45;;
24305;SDS011;12423;48.768;8.850;2023-09-07T00:53:45;6.18;;;4.63;;
24305;SDS011;12423;48.768;8.850;2023-09-07T00:56:12;5.90;;;4.32;;
24305;SDS011;12423;48.768;8.850;2023-09-07T00:58:41;9.27;;;4.73;;
24305;SDS011;12423;48.768;8.850;2023-09-07T01:01:10;6.28;;;4.50;;
24305;SDS011;12423;48.768;8.850;2023-09-07T01:03:38;7.43;;;4.32;;
24305;SDS011;12423;48.768;8.850;2023-09-07T01:06:10;8.05;;;4.75;;
24305;SDS011;12423;48.768;8.850;2023-09-07T01:08:44;8.20;;;4.57;;
24305;SDS011;12423;48.768;8.850;2023-09-07T01:11:14;7.10;;;4.32;;
24305;SDS011;12423;48.768;8.850;2023-09-07T01:13:42;6.35;;;4.07;;
24305;SDS011;12423;48.768;8.850;2023-09-07T01:16:10;7.80;;;4.10;;
24305;SDS011;12423;48.768;8.850;2023-09-07T01:23:40;8.73;;;4.45;;
24305;SDS011;12423;48.768;8.850;2023-09-07T01:26:09;6.25;;;4.38;;
24305;SDS011;12423;48.768;8.850;2023-09-07T01:28:37;7.27;;;4.73;;
24305;SDS011;12423;48.768;8.850;2023-09-07T01:31:05;8.07;;;4.18;;
24305;SDS011;12423;48.768;8.850;2023-09-07T01:33:33;5.68;;;4.18;;
24305;SDS011;12423;48.768;8.850;2023-09-07T01:36:01;8.90;;;4.35;;
24305;SDS011;12423;48.768;8.850;2023-09-07T01:38:29;5.87;;;4.17;;
24305;SDS011;12423;48.768;8.850;2023-09-07T01:40:58;10.35;;;4.53;;
24305;SDS011;12423;48.768;8.850;2023-09-07T01:43:26;9.75;;;4.40;;
24305;SDS011;12423;48.768;8.850;2023-09-07T01:45:54;7.97;;;4.50;;
24305;SDS011;12423;48.768;8.850;2023-09-07T01:48:23;6.97;;;4.60;;
24305;SDS011;12423;48.768;8.850;2023-09-07T01:50:51;5.32;;;4.40;;
24305;SDS011;12423;48.768;8.850;2023-09-07T01:53:19;6.10;;;4.65;;
24305;SDS011;12423;48.768;8.850;2023-09-07T01:55:48;6.22;;;4.63;;
24305;SDS011;12423;48.768;8.850;2023-09-07T01:58:18;6.70;;;4.45;;
24305;SDS011;12423;48.768;8.850;2023-09-07T02:00:46;6.75;;;4.60;;
24305;SDS011;12423;48.768;8.850;2023-09-07T02:03:13;5.45;;;4.28;;
24305;SDS011;12423;48.768;8.850;2023-09-07T02:05:41;7.93;;;5.03;;
24305;SDS011;12423;48.768;8.850;2023-09-07T02:08:11;6.38;;;4.95;;
24305;SDS011;12423;48.768;8.850;2023-09-07T02:10:39;7.43;;;4.85;;
24305;SDS011;12423;48.768;8.850;2023-09-07T02:13:06;5.28;;;4.68;;
24305;SDS011;12423;48.768;8.850;2023-09-07T02:15:38;6.00;;;4.43;;
24305;SDS011;12423;48.768;8.850;2023-09-07T02:18:06;5.78;;;4.20;;
24305;SDS011;12423;48.768;8.850;2023-09-07T02:20:34;6.25;;;4.50;;
24305;SDS011;12423;48.768;8.850;2023-09-07T02:23:02;6.32;;;4.78;;
24305;SDS011;12423;48.768;8.850;2023-09-07T02:25:30;5.70;;;4.23;;
24305;SDS011;12423;48.768;8.850;2023-09-07T02:27:58;9.35;;;4.47;;
24305;SDS011;12423;48.768;8.850;2023-09-07T02:30:26;6.00;;;4.20;;
24305;SDS011;12423;48.768;8.850;2023-09-07T02:32:55;6.43;;;4.45;;
24305;SDS011;12423;48.768;8.850;2023-09-07T02:35:25;8.32;;;4.18;;
24305;SDS011;12423;48.768;8.850;2023-09-07T02:37:53;8.32;;;4.45;;
24305;SDS011;12423;48.768;8.850;2023-09-07T02:40:20;6.65;;;4.32;;
24305;SDS011;12423;48.768;8.850;2023-09-07T02:42:49;5.03;;;4.22;;
24305;SDS011;12423;48.768;8.850;2023-09-07T02:45:16;7.03;;;4.68;;
24305;SDS011;12423;48.768;8.850;2023-09-07T02:47:44;6.15;;;3.95;;
24305;SDS011;12423;48.768;8.850;2023-09-07T02:50:14;5.88;;;4.30;;
24305;SDS011;12423;48.768;8.850;2023-09-07T02:52:44;5.65;;;4.22;;
24305;SDS011;12423;48.768;8.850;2023-09-07T02:55:11;5.40;;;4.28;;
24305;SDS011;12423;48.768;8.850;2023-09-07T02:57:39;5.65;;;3.95;;
24305;SDS011;12423;48.768;8.850;2023-09-07T03:00:07;6.05;;;4.35;;
24305;SDS011;12423;48.768;8.850;2023-09-07T03:02:38;6.47;;;4.40;;
24305;SDS011;12423;48.768;8.850;2023-09-07T03:05:06;5.85;;;3.90;;
24305;SDS011;12423;48.768;8.850;2023-09-07T03:07:36;6.32;;;4.38;;
24305;SDS011;12423;48.768;8.850;2023-09-07T03:10:05;6.45;;;4.35;;
24305;SDS011;12423;48.768;8.850;2023-09-07T03:12:33;6.25;;;4.32;;
24305;SDS011;12423;48.768;8.850;2023-09-07T03:15:02;7.10;;;4.18;;
24305;SDS011;12423;48.768;8.850;2023-09-07T03:17:30;8.50;;;4.22;;
24305;SDS011;12423;48.768;8.850;2023-09-07T03:19:58;5.47;;;4.10;;
24305;SDS011;12423;48.768;8.850;2023-09-07T03:22:26;6.50;;;4.60;;
24305;SDS011;12423;48.768;8.850;2023-09-07T03:24:57;6.22;;;4.63;;
24305;SDS011;12423;48.768;8.850;2023-09-07T03:29:52;5.05;;;3.80;;
24305;SDS011;12423;48.768;8.850;2023-09-07T03:32:21;6.90;;;4.20;;
24305;SDS011;12423;48.768;8.850;2023-09-07T03:34:49;9.00;;;4.80;;
24305;SDS011;12423;48.768;8.850;2023-09-07T03:37:17;5.60;;;4.15;;
24305;SDS011;12423;48.768;8.850;2023-09-07T03:39:44;7.32;;;4.60;;
24305;SDS011;12423;48.768;8.850;2023-09-07T03:42:14;5.65;;;4.30;;
24305;SDS011;12423;48.768;8.850;2023-09-07T03:44:42;6.45;;;4.50;;
24305;SDS011;12423;48.768;8.850;2023-09-07T03:47:10;5.38;;;4.30;;
24305;SDS011;12423;48.768;8.850;2023-09-07T03:49:38;9.25;;;3.95;;
24305;SDS011;12423;48.768;8.850;2023-09-07T03:52:05;6.40;;;4.32;;
24305;SDS011;12423;48.768;8.850;2023-09-07T03:54:33;5.57;;;4.07;;
24305;SDS011;12423;48.768;8.850;2023-09-07T03:57:01;7.05;;;4.30;;
24305;SDS011;12423;48.768;8.850;2023-09-07T03:59:32;6.32;;;4.38;;
24305;SDS011;12423;48.768;8.850;2023-09-07T04:02:00;5.80;;;4.13;;
24305;SDS011;12423;48.768;8.850;2023-09-07T04:04:28;5.97;;;4.25;;
24305;SDS011;12423;48.768;8.850;2023-09-07T04:06:56;4.75;;;3.85;;
24305;SDS011;12423;48.768;8.850;2023-09-07T04:09:23;5.03;;;4.18;;
24305;SDS011;12423;48.768;8.850;2023-09-07T04:11:51;5.60;;;3.90;;
24305;SDS011;12423;48.768;8.850;2023-09-07T04:14:19;5.57;;;4.50;;
24305;SDS011;12423;48.768;8.850;2023-09-07T04:16:48;6.13;;;4.22;;
24305;SDS011;12423;48.768;8.850;2023-09-07T04:19:17;6.60;;;4.70;;
24305;SDS011;12423;48.768;8.850;2023-09-07T04:21:44;7.38;;;4.30;;
24305;SDS011;12423;48.768;8.850;2023-09-07T04:24:12;6.95;;;4.20;;
24305;SDS011;12423;48.768;8.850;2023-09-07T04:26:41;8.07;;;4.30;;
24305;SDS011;12423;48.768;8.850;2023-09-07T04:29:08;6.82;;;3.97;;
24305;SDS011;12423;48.768;8.850;2023-09-07T04:31:38;4.75;;;4.03;;
24305;SDS011;12423;48.768;8.850;2023-09-07T04:34:07;5.72;;;3.88;;
24305;SDS011;12423;48.768;8.850;2023-09-07T04:36:35;5.55;;;4.65;;
24305;SDS011;12423;48.768;8.850;2023-09-07T04:39:03;8.02;;;4.53;;
24305;SDS011;12423;48.768;8.850;2023-09-07T04:41:31;7.37;;;4.47;;
24305;SDS011;12423;48.768;8.850;2023-09-07T04:43:59;7.53;;;4.38;;
24305;SDS011;12423;48.768;8.850;2023-09-07T04:46:27;8.45;;;4.10;;
24305;SDS011;12423;48.768;8.850;2023-09-07T04:48:55;6.20;;;4.22;;
24305;SDS011;12423;48.768;8.850;2023-09-07T04:51:24;5.90;;;3.90;;
24305;SDS011;12423;48.768;8.850;2023-09-07T04:53:53;8.05;;;4.28;;
24305;SDS011;12423;48.768;8.850;2023-09-07T04:56:21;6.15;;;4.68;;
24305;SDS011;12423;48.768;8.850;2023-09-07T04:58:49;5.57;;;4.50;;
24305;SDS011;12423;48.768;8.850;2023-09-07T05:01:17;6.43;;;4.55;;
24305;SDS011;12423;48.768;8.850;2023-09-07T05:03:46;6.93;;;4.38;;
24305;SDS011;12423;48.768;8.850;2023-09-07T05:06:13;7.35;;;4.63;;
24305;SDS011;12423;48.768;8.850;2023-09-07T05:08:43;5.20;;;4.25;;
24305;SDS011;12423;48.768;8.850;2023-09-07T05:13:38;7.13;;;4.57;;
24305;SDS011;12423;48.768;8.850;2023-09-07T05:16:06;5.80;;;4.60;;
24305;SDS011;12423;48.768;8.850;2023-09-07T05:18:35;7.25;;;4.60;;
24305;SDS011;12423;48.768;8.850;2023-09-07T05:21:10;5.43;;;4.43;;
24305;SDS011;12423;48.768;8.850;2023-09-07T05:23:39;6.88;;;4.90;;
24305;SDS011;12423;48.768;8.850;2023-09-07T05:26:08;7.25;;;4.90;;
24305;SDS011;12423;48.768;8.850;2023-09-07T05:28:36;7.78;;;4.85;;
24305;SDS011;12423;48.768;8.850;2023-09-07T05:31:04;8.02;;;4.60;;
24305;SDS011;12423;48.768;8.850;2023-09-07T05:33:32;7.25;;;4.68;;
24305;SDS011;12423;48.768;8.850;2023-09-07T05:36:00;7.65;;;4.93;;
24305;SDS011;12423;48.768;8.850;2023-09-07T05:38:28;8.77;;;4.55;;
24305;SDS011;12423;48.768;8.850;2023-09-07T05:40:59;7.38;;;4.90;;
24305;SDS011;12423;48.768;8.850;2023-09-07T05:43:29;7.22;;;4.68;;
24305;SDS011;12423;48.768;8.850;2023-09-07T05:45:58;10.25;;;4.88;;
24305;SDS011;12423;48.768;8.850;2023-09-07T05:48:25;8.20;;;4.97;;
24305;SDS011;12423;48.768;8.850;2023-09-07T05:50:53;8.20;;;5.20;;
24305;SDS011;12423;48.768;8.850;2023-09-07T05:53:21;7.35;;;4.78;;
24305;SDS011;12423;48.768;8.850;2023-09-07T05:55:50;6.10;;;4.47;;
24305;SDS011;12423;48.768;8.850;2023-09-07T05:58:18;8.52;;;4.60;;
24305;SDS011;12423;48.768;8.850;2023-09-07T06:00:48;9.63;;;4.15;;
24305;SDS011;12423;48.768;8.850;2023-09-07T06:03:16;6.85;;;4.45;;
24305;SDS011;12423;48.768;8.850;2023-09-07T06:05:44;7.38;;;4.57;;
24305;SDS011;12423;48.768;8.850;2023-09-07T06:08:12;8.20;;;4.80;;
24305;SDS011;12423;48.768;8.850;2023-09-07T06:10:40;9.55;;;4.43;;
24305;SDS011;12423;48.768;8.850;2023-09-07T06:13:08;8.73;;;4.90;;
24305;SDS011;12423;48.768;8.850;2023-09-07T06:15:36;8.27;;;4.55;;
24305;SDS011;12423;48.768;8.850;2023-09-07T06:18:05;8.90;;;4.72;;
24305;SDS011;12423;48.768;8.850;2023-09-07T06:20:33;14.13;;;5.00;;
24305;SDS011;12423;48.768;8.850;2023-09-07T06:23:02;12.57;;;5.25;;
24305;SDS011;12423;48.768;8.850;2023-09-07T06:25:30;9.07;;;4.43;;
24305;SDS011;12423;48.768;8.850;2023-09-07T06:27:59;6.18;;;4.13;;
24305;SDS011;12423;48.768;8.850;2023-09-07T06:30:31;9.07;;;4.85;;
24305;SDS011;12423;48.768;8.850;2023-09-07T06:32:59;12.77;;;5.07;;
24305;SDS011;12423;48.768;8.850;2023-09-07T06:35:28;9.27;;;4.67;;
24305;SDS011;12423;48.768;8.850;2023-09-07T06:37:56;9.55;;;5.07;;
24305;SDS011;12423;48.768;8.850;2023-09-07T06:40:25;6.82;;;4.50;;
24305;SDS011;12423;48.768;8.850;2023-09-07T06:42:55;8.15;;;4.88;;
24305;SDS011;12423;48.768;8.850;2023-09-07T06:45:25;11.32;;;5.38;;
24305;SDS011;12423;48.768;8.850;2023-09-07T06:47:53;7.60;;;5.67;;
24305;SDS011;12423;48.768;8.850;2023-09-07T06:50:24;6.72;;;5.00;;
24305;SDS011;12423;48.768;8.850;2023-09-07T06:52:53;8.50;;;5.10;;
24305;SDS011;12423;48.768;8.850;2023-09-07T06:55:22;9.55;;;4.63;;
24305;SDS011;12423;48.768;8.850;2023-09-07T06:57:49;9.32;;;4.85;;
24305;SDS011;12423;48.768;8.850;2023-09-07T07:00:17;6.13;;;4.72;;
24305;SDS011;12423;48.768;8.850;2023-09-07T07:02:45;7.30;;;4.95;;
24305;SDS011;12423;48.768;8.850;2023-09-07T07:05:13;7.05;;;5.10;;
24305;SDS011;12423;48.768;8.850;2023-09-07T07:07:42;11.82;;;5.45;;
24305;SDS011;12423;48.768;8.850;2023-09-07T07:10:11;6.63;;;4.90;;
24305;SDS011;12423;48.768;8.850;2023-09-07T07:12:40;6.60;;;4.80;;
24305;SDS011;12423;48.768;8.850;2023-09-07T07:15:08;9.05;;;5.13;;
24305;SDS011;12423;48.768;8.850;2023-09-07T07:17:38;10.05;;;5.65;;
24305;SDS011;12423;48.768;8.850;2023-09-07T07:20:06;12.85;;;5.13;;
24305;SDS011;12423;48.768;8.850;2023-09-07T07:22:35;7.65;;;5.53;;
24305;SDS011;12423;48.768;8.850;2023-09-07T07:27:34;9.30;;;5.57;;
24305;SDS011;12423;48.768;8.850;2023-09-07T07:30:02;9.90;;;5.30;;
24305;SDS011;12423;48.768;8.850;2023-09-07T07:32:31;9.70;;;5.32;;
24305;SDS011;12423;48.768;8.850;2023-09-07T07:34:59;8.20;;;5.30;;
24305;SDS011;12423;48.768;8.850;2023-09-07T07:37:28;8.10;;;5.53;;
24305;SDS011;12423;48.768;8.850;2023-09-07T07:39:55;10.57;;;5.13;;
24305;SDS011;12423;48.768;8.850;2023-09-07T07:42:24;8.82;;;5.95;;
24305;SDS011;12423;48.768;8.850;2023-09-07T07:44:53;8.63;;;5.25;;
24305;SDS011;12423;48.768;8.850;2023-09-07T07:47:21;9.15;;;5.75;;
24305;SDS011;12423;48.768;8.850;2023-09-07T07:49:49;9.20;;;5.63;;
24305;SDS011;12423;48.768;8.850;2023-09-07T07:52:17;12.63;;;6.22;;
24305;SDS011;12423;48.768;8.850;2023-09-07T07:54:45;9.68;;;5.97;;
24305;SDS011;12423;48.768;8.850;2023-09-07T07:57:12;8.57;;;5.70;;
24305;SDS011;12423;48.768;8.850;2023-09-07T07:59:41;7.05;;;5.53;;
24305;SDS011;12423;48.768;8.850;2023-09-07T08:02:10;8.20;;;6.20;;
24305;SDS011;12423;48.768;8.850;2023-09-07T08:04:38;10.70;;;5.45;;
24305;SDS011;12423;48.768;8.850;2023-09-07T08:07:06;6.18;;;5.07;;
24305;SDS011;12423;48.768;8.850;2023-09-07T08:09:36;6.25;;;4.88;;
24305;SDS011;12423;48.768;8.850;2023-09-07T08:12:04;8.07;;;6.05;;
24305;SDS011;12423;48.768;8.850;2023-09-07T08:17:02;7.20;;;5.40;;
24305;SDS011;12423;48.768;8.850;2023-09-07T08:19:32;7.50;;;5.85;;
24305;SDS011;12423;48.768;8.850;2023-09-07T08:22:01;6.95;;;5.38;;
24305;SDS011;12423;48.768;8.850;2023-09-07T08:24:30;7.35;;;5.53;;
24305;SDS011;12423;48.768;8.850;2023-09-07T08:26:58;6.93;;;6.15;;
24305;SDS011;12423;48.768;8.850;2023-09-07T08:29:27;8.20;;;6.35;;
24305;SDS011;12423;48.768;8.850;2023-09-07T08:31:58;9.35;;;6.47;;
24305;SDS011;12423;48.768;8.850;2023-09-07T08:34:31;10.05;;;6.55;;
24305;SDS011;12423;48.768;8.850;2023-09-07T08:37:01;12.70;;;6.25;;
24305;SDS011;12423;48.768;8.850;2023-09-07T08:39:31;9.13;;;5.60;;
24305;SDS011;12423;48.768;8.850;2023-09-07T08:42:00;7.70;;;6.03;;
24305;SDS011;12423;48.768;8.850;2023-09-07T08:44:28;10.27;;;6.55;;
24305;SDS011;12423;48.768;8.850;2023-09-07T08:46:57;11.27;;;6.53;;
24305;SDS011;12423;48.768;8.850;2023-09-07T08:49:26;8.32;;;5.95;;
24305;SDS011;12423;48.768;8.850;2023-09-07T08:51:57;8.35;;;6.28;;
24305;SDS011;12423;48.768;8.850;2023-09-07T08:54:26;10.73;;;5.65;;
24305;SDS011;12423;48.768;8.850;2023-09-07T08:59:24;7.88;;;6.25;;
24305;SDS011;12423;48.768;8.850;2023-09-07T09:01:55;8.90;;;6.30;;
24305;SDS011;12423;48.768;8.850;2023-09-07T09:04:25;8.60;;;5.82;;
24305;SDS011;12423;48.768;8.850;2023-09-07T09:06:55;7.97;;;5.50;;
24305;SDS011;12423;48.768;8.850;2023-09-07T09:09:24;8.30;;;6.15;;
24305;SDS011;12423;48.768;8.850;2023-09-07T09:11:52;8.17;;;6.37;;
24305;SDS011;12423;48.768;8.850;2023-09-07T09:14:20;9.98;;;5.80;;
24305;SDS011;12423;48.768;8.850;2023-09-07T09:16:48;7.18;;;6.35;;
24305;SDS011;12423;48.768;8.850;2023-09-07T09:21:45;8.20;;;5.68;;
24305;SDS011;12423;48.768;8.850;2023-09-07T09:24:14;7.43;;;5.30;;
24305;SDS011;12423;48.768;8.850;2023-09-07T09:26:44;13.75;;;5.40;;
24305;SDS011;12423;48.768;8.850;2023-09-07T09:29:12;12.50;;;5.63;;
24305;SDS011;12423;48.768;8.850;2023-09-07T09:31:41;10.63;;;5.80;;
24305;SDS011;12423;48.768;8.850;2023-09-07T09:34:09;7.00;;;5.50;;
24305;SDS011;12423;48.768;8.850;2023-09-07T09:36:40;10.57;;;6.07;;
24305;SDS011;12423;48.768;8.850;2023-09-07T09:39:09;11.77;;;5.80;;
24305;SDS011;12423;48.768;8.850;2023-09-07T09:41:39;10.00;;;5.68;;
24305;SDS011;12423;48.768;8.850;2023-09-07T09:44:08;7.97;;;5.40;;
24305;SDS011;12423;48.768;8.850;2023-09-07T09:46:36;6.03;;;5.00;;
24305;SDS011;12423;48.768;8.850;2023-09-07T09:49:06;6.03;;;5.07;;
24305;SDS011;12423;48.768;8.850;2023-09-07T09:51:37;10.13;;;6.03;;
24305;SDS011;12423;48.768;8.850;2023-09-07T09:54:09;7.70;;;5.22;;
24305;SDS011;12423;48.768;8.850;2023-09-07T09:56:40;8.85;;;5.60;;
24305;SDS011;12423;48.768;8.850;2023-09-07T09:59:08;7.03;;;5.20;;
24305;SDS011;12423;48.768;8.850;2023-09-07T10:01:37;9.82;;;4.95;;
24305;SDS011;12423;48.768;8.850;2023-09-07T10:04:08;6.80;;;4.78;;
24305;SDS011;12423;48.768;8.850;2023-09-07T10:06:37;10.45;;;5.20;;
24305;SDS011;12423;48.768;8.850;2023-09-07T10:09:05;5.93;;;4.60;;
24305;SDS011;12423;48.768;8.850;2023-09-07T10:11:37;7.97;;;4.80;;
24305;SDS011;12423;48.768;8.850;2023-09-07T10:14:07;6.85;;;4.95;;
24305;SDS011;12423;48.768;8.850;2023-09-07T10:16:41;7.53;;;5.10;;
24305;SDS011;12423;48.768;8.850;2023-09-07T10:19:16;5.47;;;4.88;;
24305;SDS011;12423;48.768;8.850;2023-09-07T10:21:44;6.40;;;5.00;;
24305;SDS011;12423;48.768;8.850;2023-09-07T10:24:22;5.13;;;4.63;;
24305;SDS011;12423;48.768;8.850;2023-09-07T10:26:58;6.35;;;4.90;;
24305;SDS011;12423;48.768;8.850;2023-09-07T10:29:28;7.20;;;5.05;;
24305;SDS011;12423;48.768;8.850;2023-09-07T10:31:56;7.72;;;4.57;;
24305;SDS011;12423;48.768;8.850;2023-09-07T10:34:35;6.55;;;4.57;;
24305;SDS011;12423;48.768;8.850;2023-09-07T10:37:05;7.63;;;4.85;;
24305;SDS011;12423;48.768;8.850;2023-09-07T10:39:33;5.00;;;4.00;;
24305;SDS011;12423;48.768;8.850;2023-09-07T10:42:02;8.00;;;4.45;;
24305;SDS011;12423;48.768;8.850;2023-09-07T10:44:31;5.78;;;4.03;;
24305;SDS011;12423;48.768;8.850;2023-09-07T10:46:59;6.80;;;4.50;;
24305;SDS011;12423;48.768;8.850;2023-09-07T10:51:55;5.10;;;4.03;;
24305;SDS011;12423;48.768;8.850;2023-09-07T10:54:23;6.47;;;4.10;;
24305;SDS011;12423;48.768;8.850;2023-09-07T10:56:51;7.05;;;4.13;;
24305;SDS011;12423;48.768;8.850;2023-09-07T10:59:24;6.88;;;4.00;;
24305;SDS011;12423;48.768;8.850;2023-09-07T11:01:56;6.93;;;4.45;;
24305;SDS011;12423;48.768;8.850;2023-09-07T11:04:31;7.22;;;4.05;;
24305;SDS011;12423;48.768;8.850;2023-09-07T11:06:59;6.03;;;4.03;;
24305;SDS011;12423;48.768;8.850;2023-09-07T11:09:29;12.30;;;4.60;;
24305;SDS011;12423;48.768;8.850;2023-09-07T11:14:30;7.65;;;3.92;;
24305;SDS011;12423;48.768;8.850;2023-09-07T11:17:00;4.28;;;3.72;;
24305;SDS011;12423;48.768;8.850;2023-09-07T11:19:31;9.07;;;6.45;;
24305;SDS011;12423;48.768;8.850;2023-09-07T11:21:59;7.93;;;4.32;;
24305;SDS011;12423;48.768;8.850;2023-09-07T11:24:27;5.72;;;4.05;;
24305;SDS011;12423;48.768;8.850;2023-09-07T11:26:55;9.75;;;3.95;;
24305;SDS011;12423;48.768;8.850;2023-09-07T11:29:25;8.77;;;4.35;;
24305;SDS011;12423;48.768;8.850;2023-09-07T11:31:53;5.28;;;3.60;;
24305;SDS011;12423;48.768;8.850;2023-09-07T11:36:49;5.95;;;3.50;;
24305;SDS011;12423;48.768;8.850;2023-09-07T11:39:17;7.88;;;3.55;;
24305;SDS011;12423;48.768;8.850;2023-09-07T11:41:45;4.38;;;3.42;;
24305;SDS011;12423;48.768;8.850;2023-09-07T11:44:13;7.20;;;3.60;;
24305;SDS011;12423;48.768;8.850;2023-09-07T11:46:41;8.23;;;3.40;;
24305;SDS011;12423;48.768;8.850;2023-09-07T11:51:38;5.45;;;3.60;;
24305;SDS011;12423;48.768;8.850;2023-09-07T11:54:05;6.55;;;3.67;;
24305;SDS011;12423;48.768;8.850;2023-09-07T11:56:33;5.22;;;3.80;;
24305;SDS011;12423;48.768;8.850;2023-09-07T11:59:05;6.72;;;3.70;;
24305;SDS011;12423;48.768;8.850;2023-09-07T12:06:30;4.85;;;3.35;;
24305;SDS011;12423;48.768;8.850;2023-09-07T12:09:00;4.18;;;3.72;;
24305;SDS011;12423;48.768;8.850;2023-09-07T12:11:28;6.70;;;3.63;;
24305;SDS011;12423;48.768;8.850;2023-09-07T12:13:57;5.30;;;3.70;;
24305;SDS011;12423;48.768;8.850;2023-09-07T12:16:25;4.53;;;3.25;;
24305;SDS011;12423;48.768;8.850;2023-09-07T12:18:53;3.85;;;3.40;;
24305;SDS011;12423;48.768;8.850;2023-09-07T12:21:21;9.00;;;3.67;;
24305;SDS011;12423;48.768;8.850;2023-09-07T12:23:49;6.07;;;3.70;;
24305;SDS011;12423;48.768;8.850;2023-09-07T12:26:19;5.22;;;3.40;;
24305;SDS011;12423;48.768;8.850;2023-09-07T12:28:47;8.65;;;4.05;;
24305;SDS011;12423;48.768;8.850;2023-09-07T12:31:15;5.22;;;3.35;;
24305;SDS011;12423;48.768;8.850;2023-09-07T12:33:43;5.90;;;3.78;;
24305;SDS011;12423;48.768;8.850;2023-09-07T12:36:11;8.93;;;3.50;;
24305;SDS011;12423;48.768;8.850;2023-09-07T12:38:39;6.30;;;3.60;;
24305;SDS011;12423;48.768;8.850;2023-09-07T12:41:06;9.13;;;3.90;;
24305;SDS011;12423;48.768;8.850;2023-09-07T12:43:35;4.70;;;3.70;;
24305;SDS011;12423;48.768;8.850;2023-09-07T12:46:03;6.53;;;3.85;;
24305;SDS011;12423;48.768;8.850;2023-09-07T12:48:31;4.10;;;3.50;;
24305;SDS011;12423;48.768;8.850;2023-09-07T12:50:59;6.70;;;3.90;;
24305;SDS011;12423;48.768;8.850;2023-09-07T12:53:26;5.82;;;3.80;;
24305;SDS011;12423;48.768;8.850;2023-09-07T12:58:22;5.40;;;3.50;;
24305;SDS011;12423;48.768;8.850;2023-09-07T13:00:51;8.95;;;4.10;;
24305;SDS011;12423;48.768;8.850;2023-09-07T13:03:19;6.53;;;3.70;;
24305;SDS011;12423;48.768;8.850;2023-09-07T13:05:47;5.55;;;4.00;;
24305;SDS011;12423;48.768;8.850;2023-09-07T13:08:15;6.78;;;3.80;;
24305;SDS011;12423;48.768;8.850;2023-09-07T13:10:43;5.93;;;3.55;;
24305;SDS011;12423;48.768;8.850;2023-09-07T13:13:10;6.63;;;3.80;;
24305;SDS011;12423;48.768;8.850;2023-09-07T13:15:38;7.88;;;4.07;;
24305;SDS011;12423;48.768;8.850;2023-09-07T13:18:07;4.28;;;3.58;;
24305;SDS011;12423;48.768;8.850;2023-09-07T13:20:35;3.67;;;3.22;;
24305;SDS011;12423;48.768;8.850;2023-09-07T13:23:03;4.15;;;3.30;;
24305;SDS011;12423;48.768;8.850;2023-09-07T13:25:31;6.35;;;3.83;;
24305;SDS011;12423;48.768;8.850;2023-09-07T13:27:59;5.63;;;4.10;;
24305;SDS011;12423;48.768;8.850;2023-09-07T13:30:27;4.70;;;3.40;;
24305;SDS011;12423;48.768;8.850;2023-09-07T13:32:55;5.90;;;3.28;;
24305;SDS011;12423;48.768;8.850;2023-09-07T13:35:24;5.78;;;3.78;;
24305;SDS011;12423;48.768;8.850;2023-09-07T13:37:52;5.30;;;3.50;;
24305;SDS011;12423;48.768;8.850;2023-09-07T13:40:19;5.95;;;3.67;;
24305;SDS011;12423;48.768;8.850;2023-09-07T13:42:50;5.47;;;3.20;;
24305;SDS011;12423;48.768;8.850;2023-09-07T13:47:45;4.38;;;3.35;;
24305;SDS011;12423;48.768;8.850;2023-09-07T13:52:42;5.80;;;3.00;;
24305;SDS011;12423;48.768;8.850;2023-09-07T13:55:09;5.50;;;3.38;;
24305;SDS011;12423;48.768;8.850;2023-09-07T13:57:37;4.47;;;3.40;;
24305;SDS011;12423;48.768;8.850;2023-09-07T14:00:05;6.03;;;3.42;;
24305;SDS011;12423;48.768;8.850;2023-09-07T14:02:34;4.32;;;3.13;;
24305;SDS011;12423;48.768;8.850;2023-09-07T14:05:02;4.97;;;3.30;;
24305;SDS011;12423;48.768;8.850;2023-09-07T14:07:30;5.20;;;3.30;;
24305;SDS011;12423;48.768;8.850;2023-09-07T14:09:59;7.32;;;2.92;;
24305;SDS011;12423;48.768;8.850;2023-09-07T14:12:27;6.28;;;3.70;;
24305;SDS011;12423;48.768;8.850;2023-09-07T14:14:55;7.65;;;3.30;;
24305;SDS011;12423;48.768;8.850;2023-09-07T14:17:22;5.43;;;3.58;;
24305;SDS011;12423;48.768;8.850;2023-09-07T14:19:50;4.57;;;3.03;;
24305;SDS011;12423;48.768;8.850;2023-09-07T14:22:18;5.28;;;3.15;;
24305;SDS011;12423;48.768;8.850;2023-09-07T14:24:45;5.05;;;3.40;;
24305;SDS011;12423;48.768;8.850;2023-09-07T14:27:14;3.80;;;3.03;;
24305;SDS011;12423;48.768;8.850;2023-09-07T14:29:42;6.90;;;3.20;;
24305;SDS011;12423;48.768;8.850;2023-09-07T14:32:10;6.97;;;3.08;;
24305;SDS011;12423;48.768;8.850;2023-09-07T14:34:38;6.40;;;2.95;;
24305;SDS011;12423;48.768;8.850;2023-09-07T14:37:05;8.43;;;3.10;;
24305;SDS011;12423;48.768;8.850;2023-09-07T14:39:33;7.10;;;3.30;;
24305;SDS011;12423;48.768;8.850;2023-09-07T14:42:02;10.93;;;4.03;;
24305;SDS011;12423;48.768;8.850;2023-09-07T14:44:33;4.25;;;3.13;;
24305;SDS011;12423;48.768;8.850;2023-09-07T14:47:01;6.32;;;3.35;;
24305;SDS011;12423;48.768;8.850;2023-09-07T14:49:30;4.28;;;3.15;;
24305;SDS011;12423;48.768;8.850;2023-09-07T14:51:58;5.05;;;2.95;;
24305;SDS011;12423;48.768;8.850;2023-09-07T14:54:26;6.05;;;2.83;;
24305;SDS011;12423;48.768;8.850;2023-09-07T14:56:54;4.95;;;2.78;;
24305;SDS011;12423;48.768;8.850;2023-09-07T15:01:50;5.45;;;2.90;;
24305;SDS011;12423;48.768;8.850;2023-09-07T15:04:28;6.45;;;3.22;;
24305;SDS011;12423;48.768;8.850;2023-09-07T15:09:24;7.10;;;3.13;;
24305;SDS011;12423;48.768;8.850;2023-09-07T15:11:52;3.83;;;3.13;;
24305;SDS011;12423;48.768;8.850;2023-09-07T15:14:20;5.72;;;3.40;;
24305;SDS011;12423;48.768;8.850;2023-09-07T15:16:48;8.82;;;3.40;;
24305;SDS011;12423;48.768;8.850;2023-09-07T15:19:17;4.13;;;3.20;;
24305;SDS011;12423;48.768;8.850;2023-09-07T15:21:45;5.55;;;2.83;;
24305;SDS011;12423;48.768;8.850;2023-09-07T15:24:13;5.82;;;3.08;;
24305;SDS011;12423;48.768;8.850;2023-09-07T15:29:09;6.45;;;3.55;;
24305;SDS011;12423;48.768;8.850;2023-09-07T15:31:37;5.65;;;3.10;;
24305;SDS011;12423;48.768;8.850;2023-09-07T15:34:07;4.47;;;2.88;;
24305;SDS011;12423;48.768;8.850;2023-09-07T15:36:37;8.10;;;3.47;;
24305;SDS011;12423;48.768;8.850;2023-09-07T15:39:04;6.57;;;3.10;;
24305;SDS011;12423;48.768;8.850;2023-09-07T15:46:27;3.58;;;3.10;;
24305;SDS011;12423;48.768;8.850;2023-09-07T15:48:56;5.45;;;3.10;;
24305;SDS011;12423;48.768;8.850;2023-09-07T15:51:24;5.25;;;3.20;;
24305;SDS011;12423;48.768;8.850;2023-09-07T15:56:21;10.45;;;3.75;;